createdAt,value
2022-12-12T00:02:15.401Z,26.07
2022-12-12T00:04:41.994Z,26.70
2022-12-12T00:07:08.477Z,26.20
2022-12-12T00:09:35.016Z,26.20
2022-12-12T00:12:01.572Z,27.60
2022-12-12T00:14:28.266Z,26.20
2022-12-12T00:16:54.740Z,26.17
2022-12-12T00:19:21.303Z,26.60
2022-12-12T00:21:47.835Z,26.70
2022-12-12T00:24:14.407Z,27.77
2022-12-12T00:26:40.976Z,26.17
2022-12-12T00:29:07.575Z,25.63
2022-12-12T00:31:34.209Z,27.43
2022-12-12T00:34:00.759Z,27.00
2022-12-12T00:36:31.494Z,27.53
2022-12-12T00:38:59.017Z,26.93
2022-12-12T00:41:26.366Z,28.43
2022-12-12T00:43:52.923Z,27.00
2022-12-12T00:46:22.245Z,26.10
2022-12-12T00:48:48.998Z,27.60
2022-12-12T00:51:21.271Z,26.17
2022-12-12T00:53:49.135Z,26.40
2022-12-12T00:56:17.425Z,26.77
2022-12-12T00:58:44.078Z,26.73
2022-12-12T01:01:12.719Z,25.80
2022-12-12T01:03:40.795Z,26.83
2022-12-12T01:06:08.778Z,26.27
2022-12-12T01:08:35.336Z,27.13
2022-12-12T01:11:02.258Z,26.47
2022-12-12T01:13:28.973Z,26.50
2022-12-12T01:15:55.773Z,26.70
2022-12-12T01:18:22.332Z,27.23
2022-12-12T01:20:48.877Z,26.30
2022-12-12T01:23:15.750Z,27.13
2022-12-12T01:25:42.441Z,28.17
2022-12-12T01:28:09.124Z,27.67
2022-12-12T01:30:36.047Z,28.33
2022-12-12T01:33:03.872Z,28.50
2022-12-12T01:35:31.833Z,27.83
2022-12-12T01:37:58.375Z,28.37
2022-12-12T01:40:28.029Z,29.07
2022-12-12T01:42:55.033Z,26.30
2022-12-12T01:45:58.867Z,27.53
2022-12-12T01:48:30.397Z,27.00
2022-12-12T01:51:01.835Z,26.70
2022-12-12T01:53:31.597Z,28.10
2022-12-12T01:55:58.977Z,31.20
2022-12-12T01:58:26.262Z,30.43
2022-12-12T02:00:52.874Z,29.37
2022-12-12T02:03:19.580Z,29.10
2022-12-12T02:06:00.047Z,29.10
2022-12-12T02:08:27.245Z,28.97
2022-12-12T02:10:53.892Z,28.37
2022-12-12T02:13:24.377Z,29.57
2022-12-12T02:15:59.950Z,28.77
2022-12-12T02:19:06.718Z,28.83
2022-12-12T02:21:49.850Z,27.70
2022-12-12T02:24:35.336Z,27.10
2022-12-12T02:27:23.468Z,28.10
2022-12-12T02:30:10.711Z,26.87
2022-12-12T02:33:28.304Z,27.30
2022-12-12T02:35:54.787Z,25.77
2022-12-12T02:38:53.501Z,26.97
2022-12-12T02:41:39.324Z,27.30
2022-12-12T02:44:20.295Z,27.37
2022-12-12T02:46:55.886Z,26.70
2022-12-12T02:49:40.292Z,26.90
2022-12-12T02:52:09.918Z,26.80
2022-12-12T02:54:37.183Z,25.60
2022-12-12T02:57:09.602Z,26.67
2022-12-12T02:59:40.319Z,27.73
2022-12-12T03:02:25.381Z,26.37
2022-12-12T03:05:48.258Z,27.00
2022-12-12T03:08:43.779Z,26.47
2022-12-12T03:11:22.360Z,25.47
2022-12-12T03:14:03.265Z,26.37
2022-12-12T03:16:43.756Z,27.00
2022-12-12T03:19:19.218Z,26.37
2022-12-12T03:21:56.877Z,25.73
2022-12-12T03:24:32.641Z,26.23
2022-12-12T03:27:04.658Z,26.93
2022-12-12T03:29:49.821Z,25.57
2022-12-12T03:32:26.663Z,24.87
2022-12-12T03:35:02.953Z,27.03
2022-12-12T03:37:37.663Z,25.40
2022-12-12T03:40:10.307Z,25.13
2022-12-12T03:42:45.905Z,25.50
2022-12-12T03:45:20.346Z,25.50
2022-12-12T03:47:55.736Z,25.57
2022-12-12T03:50:26.505Z,25.83
2022-12-12T03:53:11.440Z,25.10
2022-12-12T03:55:50.199Z,24.60
2022-12-12T03:58:33.833Z,25.10
2022-12-12T04:01:04.484Z,24.57
2022-12-12T04:03:49.393Z,25.13
2022-12-12T04:06:34.732Z,24.97
2022-12-12T04:09:23.896Z,25.00
2022-12-12T04:12:28.984Z,24.33
2022-12-12T04:15:47.560Z,24.83
2022-12-12T04:18:28.880Z,25.27
2022-12-12T04:21:43.500Z,24.67
2022-12-12T04:24:30.263Z,24.17
2022-12-12T04:27:09.272Z,24.87
2022-12-12T04:29:41.200Z,24.07
2022-12-12T04:32:49.083Z,26.00
2022-12-12T04:35:21.560Z,24.30
2022-12-12T04:37:59.030Z,24.43
2022-12-12T04:40:29.832Z,25.37
2022-12-12T04:43:00.814Z,25.30
2022-12-12T04:45:38.628Z,24.60
2022-12-12T04:48:07.928Z,24.33
2022-12-12T04:50:35.835Z,24.83
2022-12-12T04:53:07.440Z,24.53
2022-12-12T04:55:42.295Z,24.63
2022-12-12T04:58:09.554Z,23.70
2022-12-12T05:00:57.265Z,24.70
2022-12-12T05:04:00.907Z,24.80
2022-12-12T05:06:41.749Z,25.47
2022-12-12T05:09:08.771Z,24.13
2022-12-12T05:11:35.485Z,24.53
2022-12-12T05:14:02.117Z,24.17
2022-12-12T05:16:47.993Z,24.67
2022-12-12T05:19:14.839Z,23.73
2022-12-12T05:21:41.437Z,24.10
2022-12-12T05:24:08.322Z,24.97
2022-12-12T05:26:35.839Z,24.40
2022-12-12T05:29:07.163Z,26.27
2022-12-12T05:31:34.174Z,26.67
2022-12-12T05:34:00.806Z,26.03
2022-12-12T05:36:27.357Z,25.87
2022-12-12T05:38:53.986Z,24.97
2022-12-12T05:41:20.617Z,24.07
2022-12-12T05:43:47.281Z,24.60
2022-12-12T05:46:13.955Z,24.10
2022-12-12T05:48:40.530Z,26.07
2022-12-12T05:51:07.207Z,24.70
2022-12-12T05:53:42.029Z,25.63
2022-12-12T05:56:11.458Z,24.00
2022-12-12T05:58:39.178Z,24.97
2022-12-12T06:01:06.443Z,25.10
2022-12-12T06:03:33.393Z,25.77
2022-12-12T06:06:00.534Z,24.73
2022-12-12T06:08:27.115Z,24.90
2022-12-12T06:10:54.386Z,24.63
2022-12-12T06:13:20.870Z,23.40
2022-12-12T06:15:47.453Z,23.50
2022-12-12T06:18:14.011Z,24.23
2022-12-12T06:20:40.547Z,23.87
2022-12-12T06:23:07.810Z,24.47
2022-12-12T06:25:34.436Z,24.73
2022-12-12T06:28:01.099Z,24.23
2022-12-12T06:30:27.824Z,25.90
2022-12-12T06:32:54.385Z,23.80
2022-12-12T06:35:20.918Z,24.60
2022-12-12T06:37:48.569Z,23.60
2022-12-12T06:40:16.501Z,23.53
2022-12-12T06:42:47.882Z,24.30
2022-12-12T06:45:15.734Z,23.67
2022-12-12T06:47:42.579Z,25.33
2022-12-12T06:50:09.263Z,22.57
2022-12-12T06:52:36.646Z,23.73
2022-12-12T06:55:03.568Z,23.97
2022-12-12T06:57:30.138Z,24.77
2022-12-12T06:59:56.671Z,23.97
2022-12-12T07:02:29.298Z,23.70
2022-12-12T07:04:56.862Z,24.27
2022-12-12T07:07:23.478Z,24.67
2022-12-12T07:09:50.017Z,24.03
2022-12-12T07:12:16.561Z,24.70
2022-12-12T07:14:43.024Z,23.03
2022-12-12T07:17:09.574Z,24.07
2022-12-12T07:19:36.110Z,23.63
2022-12-12T07:22:09.026Z,24.63
2022-12-12T07:24:36.564Z,25.33
2022-12-12T07:27:03.476Z,23.67
2022-12-12T07:29:30.004Z,25.80
2022-12-12T07:31:56.543Z,25.27
2022-12-12T07:34:23.141Z,23.47
2022-12-12T07:36:49.706Z,24.00
2022-12-12T07:39:20.711Z,24.37
2022-12-12T07:41:48.347Z,24.50
2022-12-12T07:44:16.429Z,24.90
2022-12-12T07:46:43.108Z,25.13
2022-12-12T07:49:10.099Z,25.57
2022-12-12T07:51:40.986Z,24.73
2022-12-12T07:54:44.550Z,24.00
2022-12-12T07:57:11.158Z,25.47
2022-12-12T07:59:38.100Z,25.73
2022-12-12T08:02:04.699Z,25.47
2022-12-12T08:04:31.658Z,25.83
2022-12-12T08:07:03.980Z,25.00
2022-12-12T08:09:33.499Z,25.33
2022-12-12T08:12:00.186Z,26.43
2022-12-12T08:14:27.015Z,26.50
2022-12-12T08:16:53.567Z,26.60
2022-12-12T08:19:20.227Z,25.30
2022-12-12T08:21:47.267Z,26.23
2022-12-12T08:24:15.713Z,26.17
2022-12-12T08:26:44.072Z,27.43
2022-12-12T08:29:11.807Z,26.97
2022-12-12T08:31:39.546Z,24.80
2022-12-12T08:34:06.237Z,28.00
2022-12-12T08:36:35.087Z,27.53
2022-12-12T08:39:10.234Z,26.57
2022-12-12T08:41:39.746Z,26.10
2022-12-12T08:44:07.853Z,27.40
2022-12-12T08:46:34.986Z,28.30
2022-12-12T08:49:01.565Z,28.47
2022-12-12T08:51:28.156Z,27.67
2022-12-12T08:53:54.788Z,26.73
2022-12-12T08:56:23.107Z,27.13
2022-12-12T08:58:50.007Z,28.23
2022-12-12T09:01:20.117Z,29.43
2022-12-12T09:03:47.950Z,29.27
2022-12-12T09:06:15.361Z,30.90
2022-12-12T09:08:42.506Z,29.47
2022-12-12T09:11:10.135Z,31.13
2022-12-12T09:13:37.452Z,29.70
2022-12-12T09:16:05.943Z,32.07
2022-12-12T09:18:32.892Z,31.33
2022-12-12T09:20:59.480Z,35.57
2022-12-12T09:23:27.544Z,35.87
2022-12-12T09:25:54.907Z,37.33
2022-12-12T09:28:23.596Z,37.63
2022-12-12T09:30:50.559Z,38.70
2022-12-12T09:33:18.350Z,42.07
2022-12-12T09:35:45.146Z,42.13
2022-12-12T09:38:14.525Z,42.10
2022-12-12T09:41:02.511Z,43.33
2022-12-12T09:43:33.653Z,41.53
2022-12-12T09:46:02.573Z,42.17
2022-12-12T09:48:45.055Z,44.20
2022-12-12T09:51:12.770Z,44.17
2022-12-12T09:53:41.951Z,43.23
2022-12-12T09:56:44.395Z,40.90
2022-12-12T09:59:16.819Z,38.47
2022-12-12T10:02:20.865Z,36.80
2022-12-12T10:05:19.563Z,37.67
2022-12-12T10:08:09.172Z,35.80
2022-12-12T10:10:41.311Z,36.77
2022-12-12T10:13:15.862Z,35.73
2022-12-12T10:15:51.016Z,37.40
2022-12-12T10:18:25.825Z,39.13
2022-12-12T10:20:56.772Z,39.17
2022-12-12T10:23:37.885Z,36.10
2022-12-12T10:26:11.892Z,35.63
2022-12-12T10:28:38.544Z,36.83
2022-12-12T10:31:17.794Z,36.53
2022-12-12T10:33:59.011Z,36.33
2022-12-12T10:36:44.131Z,38.17
2022-12-12T10:39:19.362Z,36.83
2022-12-12T10:41:49.603Z,36.77
2022-12-12T10:44:42.872Z,37.27
2022-12-12T10:47:12.975Z,36.80
2022-12-12T10:49:40.396Z,36.77
2022-12-12T10:52:19.145Z,37.03
2022-12-12T10:54:50.992Z,35.33
2022-12-12T10:57:24.672Z,36.50
2022-12-12T10:59:56.236Z,36.73
2022-12-12T11:02:34.631Z,36.37
2022-12-12T11:05:07.354Z,39.33
2022-12-12T11:07:39.472Z,39.93
2022-12-12T11:10:26.828Z,38.33
2022-12-12T11:13:00.166Z,39.13
2022-12-12T11:15:40.591Z,41.03
2022-12-12T11:18:15.496Z,39.47
2022-12-12T11:20:46.719Z,39.97
2022-12-12T11:23:23.820Z,40.20
2022-12-12T11:25:59.964Z,40.13
2022-12-12T11:28:31.323Z,39.10
2022-12-12T11:31:01.263Z,38.03
2022-12-12T11:33:42.408Z,37.53
2022-12-12T11:36:15.414Z,39.13
2022-12-12T11:38:48.947Z,37.13
2022-12-12T11:41:15.775Z,37.60
2022-12-12T11:43:48.299Z,37.23
2022-12-12T11:46:14.876Z,37.00
2022-12-12T11:48:44.214Z,36.40
2022-12-12T11:51:11.599Z,37.37
2022-12-12T11:53:40.645Z,35.00
2022-12-12T11:56:24.062Z,36.97
2022-12-12T11:58:55.072Z,36.27
2022-12-12T12:01:52.013Z,36.80
2022-12-12T12:04:27.256Z,36.07
2022-12-12T12:07:12.227Z,34.43
2022-12-12T12:10:10.926Z,35.80
2022-12-12T12:12:56.252Z,35.60
2022-12-12T12:16:07.383Z,36.27
2022-12-12T12:19:00.329Z,35.63
2022-12-12T12:21:47.668Z,37.43
2022-12-12T12:25:02.207Z,36.37
2022-12-12T12:27:43.017Z,35.27
2022-12-12T12:30:22.801Z,36.40
2022-12-12T12:33:15.347Z,35.23
2022-12-12T12:36:04.266Z,34.17
2022-12-12T12:39:01.084Z,36.10
2022-12-12T12:41:33.733Z,34.97
2022-12-12T12:44:16.871Z,34.53
2022-12-12T12:47:09.765Z,34.87
2022-12-12T12:49:47.015Z,34.10
2022-12-12T12:52:19.997Z,33.63
2022-12-12T12:54:49.004Z,34.00
2022-12-12T12:57:30.396Z,34.10
2022-12-12T13:00:06.356Z,34.07
2022-12-12T13:02:51.160Z,35.27
2022-12-12T13:05:27.445Z,33.37
2022-12-12T13:08:27.027Z,32.50
2022-12-12T13:10:58.785Z,33.57
2022-12-12T13:13:35.079Z,34.53
2022-12-12T13:16:07.752Z,36.10
2022-12-12T13:18:45.025Z,34.83
2022-12-12T13:21:35.787Z,34.60
2022-12-12T13:24:14.010Z,33.43
2022-12-12T13:27:20.262Z,32.83
2022-12-12T13:30:05.011Z,32.43
2022-12-12T13:33:08.990Z,31.90
2022-12-12T13:35:46.050Z,29.43
2022-12-12T13:38:26.567Z,29.67
2022-12-12T13:41:01.849Z,28.60
2022-12-12T13:43:40.386Z,27.83
2022-12-12T13:46:23.584Z,28.03
2022-12-12T13:49:23.455Z,28.70
2022-12-12T13:51:49.984Z,27.97
2022-12-12T13:54:19.198Z,30.93
2022-12-12T13:57:11.980Z,30.17
2022-12-12T13:59:53.627Z,31.03
2022-12-12T14:02:31.401Z,28.70
2022-12-12T14:05:12.256Z,29.30
2022-12-12T14:07:47.270Z,28.07
2022-12-12T14:10:48.107Z,30.33
2022-12-12T14:13:31.070Z,27.10
2022-12-12T14:15:57.575Z,28.37
2022-12-12T14:18:30.075Z,28.77
2022-12-12T14:21:02.605Z,28.43
2022-12-12T14:23:33.911Z,27.13
2022-12-12T14:26:01.248Z,27.13
2022-12-12T14:28:29.101Z,26.97
2022-12-12T14:31:09.033Z,27.13
2022-12-12T14:33:35.552Z,28.13
2022-12-12T14:36:08.738Z,25.97
2022-12-12T14:38:52.817Z,27.13
2022-12-12T14:41:31.438Z,25.97
2022-12-12T14:44:37.462Z,26.67
2022-12-12T14:46:48.652Z,26.87
2022-12-12T14:49:17.216Z,26.43
2022-12-12T14:51:47.035Z,26.37
2022-12-12T14:54:23.663Z,25.37
2022-12-12T14:56:53.441Z,26.17
2022-12-12T14:59:26.910Z,26.13
2022-12-12T15:02:10.771Z,27.47
2022-12-12T15:04:39.673Z,26.17
2022-12-12T15:07:21.451Z,24.93
2022-12-12T15:09:49.199Z,25.73
2022-12-12T15:12:22.578Z,27.77
2022-12-12T15:14:49.285Z,27.30
2022-12-12T15:17:18.197Z,26.90
2022-12-12T15:19:48.090Z,28.27
2022-12-12T15:22:23.813Z,27.77
2022-12-12T15:24:51.400Z,27.40
2022-12-12T15:27:29.892Z,27.53
2022-12-12T15:29:58.577Z,28.37
2022-12-12T15:32:27.533Z,27.83
2022-12-12T15:35:04.762Z,26.17
2022-12-12T15:37:33.344Z,28.57
2022-12-12T15:40:12.314Z,29.00
2022-12-12T15:42:42.820Z,29.60
2022-12-12T15:45:18.398Z,30.47
2022-12-12T15:47:45.219Z,29.30
2022-12-12T15:50:33.825Z,32.60
2022-12-12T15:53:04.732Z,30.50
2022-12-12T15:55:32.885Z,29.23
2022-12-12T15:57:59.951Z,28.83
2022-12-12T16:00:30.379Z,29.83
2022-12-12T16:03:06.922Z,28.83
2022-12-12T16:05:38.789Z,29.67
2022-12-12T16:08:44.651Z,29.33
2022-12-12T16:11:31.861Z,31.53
2022-12-12T16:13:59.487Z,31.40
2022-12-12T16:16:36.057Z,29.37
2022-12-12T16:19:04.286Z,30.57
2022-12-12T16:21:31.366Z,30.10
2022-12-12T16:24:18.585Z,27.47
2022-12-12T16:26:45.357Z,28.37
2022-12-12T16:29:11.930Z,28.80
2022-12-12T16:31:38.538Z,28.70
2022-12-12T16:34:05.496Z,28.10
2022-12-12T16:36:39.915Z,23.63
2022-12-12T16:39:09.745Z,28.77
2022-12-12T16:41:36.693Z,28.07
2022-12-12T16:44:03.253Z,27.03
2022-12-12T16:46:29.803Z,25.53
2022-12-12T16:49:03.340Z,25.50
2022-12-12T16:51:32.724Z,25.40
2022-12-12T16:53:59.922Z,26.07
2022-12-12T16:56:26.758Z,23.83
2022-12-12T16:58:53.463Z,25.20
2022-12-12T17:01:21.074Z,25.53
2022-12-12T17:03:47.703Z,24.07
2022-12-12T17:06:14.295Z,24.27
2022-12-12T17:08:40.867Z,23.23
2022-12-12T17:11:10.661Z,22.90
2022-12-12T17:13:41.588Z,22.70
2022-12-12T17:16:08.078Z,23.30
2022-12-12T17:18:34.763Z,22.63
2022-12-12T17:21:01.258Z,23.17
2022-12-12T17:23:27.874Z,23.77
2022-12-12T17:26:00.747Z,25.60
2022-12-12T17:28:31.057Z,29.13
2022-12-12T17:30:57.657Z,29.70
2022-12-12T17:33:24.255Z,30.20
2022-12-12T17:36:02.469Z,28.77
2022-12-12T17:38:30.489Z,27.73
2022-12-12T17:40:57.620Z,28.43
2022-12-12T17:43:25.588Z,26.40
2022-12-12T17:46:06.620Z,23.53
2022-12-12T17:48:35.103Z,23.63
2022-12-12T17:51:05.943Z,23.77
2022-12-12T17:53:38.535Z,21.13
2022-12-12T17:56:10.048Z,21.37
2022-12-12T17:58:38.506Z,20.93
2022-12-12T18:01:15.675Z,21.83
2022-12-12T18:03:43.466Z,21.67
2022-12-12T18:06:11.306Z,22.87
2022-12-12T18:08:38.320Z,23.40
2022-12-12T18:11:14.901Z,23.37
2022-12-12T18:13:42.134Z,23.63
2022-12-12T18:16:12.075Z,24.37
2022-12-12T18:18:39.054Z,25.87
2022-12-12T18:21:08.135Z,24.87
2022-12-12T18:23:34.726Z,23.13
2022-12-12T18:26:06.385Z,22.13
2022-12-12T18:28:33.444Z,20.53
2022-12-12T18:30:59.994Z,20.20
2022-12-12T18:33:26.532Z,19.53
2022-12-12T18:36:03.967Z,18.67
2022-12-12T18:38:31.628Z,18.47
2022-12-12T18:40:58.382Z,18.03
2022-12-12T18:43:26.531Z,18.77
2022-12-12T18:45:54.353Z,18.67
2022-12-12T18:48:21.339Z,17.70
2022-12-12T18:50:48.070Z,18.77
2022-12-12T18:53:14.736Z,19.37
2022-12-12T18:55:42.930Z,19.60
2022-12-12T18:58:11.125Z,20.13
2022-12-12T19:00:40.224Z,20.47
2022-12-12T19:03:07.860Z,20.10
2022-12-12T19:05:40.522Z,19.53
2022-12-12T19:08:07.408Z,19.63
2022-12-12T19:10:35.584Z,20.07
2022-12-12T19:13:02.257Z,20.77
2022-12-12T19:15:28.861Z,22.60
2022-12-12T19:17:56.178Z,22.13
2022-12-12T19:20:24.468Z,22.07
2022-12-12T19:22:51.549Z,22.80
2022-12-12T19:25:18.738Z,21.87
2022-12-12T19:27:45.485Z,23.03
2022-12-12T19:30:13.324Z,20.93
2022-12-12T19:32:40.192Z,19.07
2022-12-12T19:35:07.442Z,20.03
2022-12-12T19:37:36.084Z,19.43
2022-12-12T19:40:02.709Z,19.67
2022-12-12T19:42:29.233Z,17.77
2022-12-12T19:44:55.755Z,19.33
2022-12-12T19:47:22.311Z,18.63
2022-12-12T19:49:49.554Z,19.70
2022-12-12T19:52:16.487Z,20.03
2022-12-12T19:54:43.018Z,19.37
2022-12-12T19:57:09.724Z,18.53
2022-12-12T19:59:36.384Z,20.40
2022-12-12T20:02:05.456Z,18.90
2022-12-12T20:04:32.658Z,18.63
2022-12-12T20:06:59.423Z,18.80
2022-12-12T20:09:28.964Z,19.63
2022-12-12T20:11:57.454Z,19.93
2022-12-12T20:14:26.861Z,19.23
2022-12-12T20:16:54.216Z,18.43
2022-12-12T20:19:22.389Z,19.07
2022-12-12T20:22:05.926Z,20.33
2022-12-12T20:24:33.907Z,20.47
2022-12-12T20:27:03.185Z,20.27
2022-12-12T20:29:29.947Z,19.33
2022-12-12T20:31:56.486Z,19.93
2022-12-12T20:34:24.912Z,20.73
2022-12-12T20:36:52.221Z,20.07
2022-12-12T20:39:20.945Z,19.73
2022-12-12T20:41:48.582Z,19.30
2022-12-12T20:44:15.816Z,18.67
2022-12-12T20:46:45.408Z,19.87
2022-12-12T20:49:18.053Z,19.07
2022-12-12T20:51:55.219Z,20.00
2022-12-12T20:54:24.530Z,19.73
2022-12-12T20:56:52.287Z,19.93
2022-12-12T20:59:18.867Z,19.73
2022-12-12T21:01:47.307Z,19.63
2022-12-12T21:04:14.444Z,20.03
2022-12-12T21:06:44.496Z,20.67
2022-12-12T21:09:16.248Z,20.93
2022-12-12T21:11:44.464Z,20.83
2022-12-12T21:14:10.992Z,21.83
2022-12-12T21:16:39.702Z,22.63
2022-12-12T21:19:09.640Z,23.20
2022-12-12T21:21:36.765Z,22.80
2022-12-12T21:24:03.498Z,21.77
2022-12-12T21:26:31.511Z,22.23
2022-12-12T21:29:02.021Z,21.50
2022-12-12T21:31:35.128Z,20.87
2022-12-12T21:34:02.019Z,20.93
2022-12-12T21:36:29.852Z,21.00
2022-12-12T21:39:08.808Z,19.80
2022-12-12T21:41:35.413Z,20.57
2022-12-12T21:44:02.091Z,20.97
2022-12-12T21:46:29.854Z,20.57
2022-12-12T21:49:16.172Z,21.20
2022-12-12T21:51:43.219Z,19.77
2022-12-12T21:54:11.754Z,21.73
2022-12-12T21:56:39.373Z,23.63
2022-12-12T21:59:06.976Z,26.23
2022-12-12T22:01:34.168Z,30.83
2022-12-12T22:04:01.243Z,31.57
2022-12-12T22:06:35.947Z,30.53
2022-12-12T22:09:05.371Z,29.37
2022-12-12T22:11:41.741Z,29.17
2022-12-12T22:14:18.165Z,28.87
2022-12-12T22:16:45.630Z,26.63
2022-12-12T22:19:14.089Z,27.50
2022-12-12T22:21:40.776Z,26.37
2022-12-12T22:24:07.921Z,26.90
2022-12-12T22:26:39.547Z,25.63
2022-12-12T22:29:18.106Z,23.97
2022-12-12T22:31:45.300Z,26.07
2022-12-12T22:34:16.144Z,24.33
2022-12-12T22:36:44.295Z,24.17
2022-12-12T22:39:25.255Z,23.43
2022-12-12T22:41:52.901Z,22.67
2022-12-12T22:44:21.303Z,23.47
2022-12-12T22:46:49.810Z,22.03
2022-12-12T22:49:20.108Z,21.77
2022-12-12T22:51:47.749Z,21.67
2022-12-12T22:54:14.489Z,21.67
2022-12-12T22:56:41.664Z,21.63
2022-12-12T22:59:10.639Z,21.13
2022-12-12T23:01:37.358Z,20.20
2022-12-12T23:04:04.071Z,21.43
2022-12-12T23:06:34.581Z,21.57
2022-12-12T23:09:14.275Z,21.60
2022-12-12T23:11:41.172Z,20.60
2022-12-12T23:14:11.302Z,21.60
2022-12-12T23:16:37.868Z,21.03
2022-12-12T23:19:05.950Z,22.07
2022-12-12T23:21:33.667Z,21.17
2022-12-12T23:24:00.189Z,21.00
2022-12-12T23:26:30.017Z,22.53
2022-12-12T23:29:00.260Z,22.30
2022-12-12T23:31:30.004Z,22.60
2022-12-12T23:34:01.570Z,21.70
2022-12-12T23:36:28.626Z,22.33
2022-12-12T23:38:56.862Z,23.03
2022-12-12T23:41:24.204Z,21.60
2022-12-12T23:44:28.152Z,23.23
2022-12-12T23:46:54.842Z,22.87
2022-12-12T23:49:24.492Z,21.67
2022-12-12T23:51:53.771Z,22.73
2022-12-12T23:54:23.412Z,21.30
2022-12-12T23:56:50.864Z,23.40
2022-12-12T23:59:19.318Z,22.23
